sensor_id;sensor_type;location;lat;lon;timestamp;pressure;altitude;pressure_sealevel;temperature;humidity
5609;BME280;2826;51.354;9.588;2023-05-12T00:01:32;98111.69;;;14.13;88.97
5609;BME280;2826;51.354;9.588;2023-05-12T00:03:58;98109.91;;;14.13;88.28
5609;BME280;2826;51.354;9.588;2023-05-12T00:06:25;98124.38;;;14.19;87.94
5609;BME280;2826;51.354;9.588;2023-05-12T00:08:52;98112.28;;;14.18;87.40
5609;BME280;2826;51.354;9.588;2023-05-12T00:11:18;98119.00;;;14.22;87.32
5609;BME280;2826;51.354;9.588;2023-05-12T00:13:45;98115.47;;;14.23;87.09
5609;BME280;2826;51.354;9.588;2023-05-12T00:16:13;98120.84;;;14.20;86.28
5609;BME280;2826;51.354;9.588;2023-05-12T00:18:41;98113.22;;;14.17;86.02
5609;BME280;2826;51.354;9.588;2023-05-12T00:21:08;98115.88;;;14.15;83.97
5609;BME280;2826;51.354;9.588;2023-05-12T00:23:34;98122.28;;;14.09;83.31
5609;BME280;2826;51.354;9.588;2023-05-12T00:26:01;98114.09;;;14.16;83.53
5609;BME280;2826;51.354;9.588;2023-05-12T00:28:27;98118.50;;;14.15;83.39
5609;BME280;2826;51.354;9.588;2023-05-12T00:30:55;98114.22;;;14.14;83.04
5609;BME280;2826;51.354;9.588;2023-05-12T00:33:23;98107.06;;;14.18;83.39
5609;BME280;2826;51.354;9.588;2023-05-12T00:35:50;98121.03;;;14.17;82.99
5609;BME280;2826;51.354;9.588;2023-05-12T00:38:16;98115.03;;;14.15;83.43
5609;BME280;2826;51.354;9.588;2023-05-12T00:40:43;98122.19;;;14.11;83.49
5609;BME280;2826;51.354;9.588;2023-05-12T00:43:10;98110.25;;;14.07;83.87
5609;BME280;2826;51.354;9.588;2023-05-12T00:45:37;98108.75;;;14.03;83.78
5609;BME280;2826;51.354;9.588;2023-05-12T00:48:05;98102.28;;;13.94;84.35
5609;BME280;2826;51.354;9.588;2023-05-12T00:50:33;98111.69;;;13.96;84.28
5609;BME280;2826;51.354;9.588;2023-05-12T00:53:00;98081.50;;;13.76;84.64
5609;BME280;2826;51.354;9.588;2023-05-12T00:55:28;98105.03;;;13.91;84.83
5609;BME280;2826;51.354;9.588;2023-05-12T00:57:55;98106.72;;;13.92;84.63
5609;BME280;2826;51.354;9.588;2023-05-12T01:00:21;98097.38;;;13.88;84.63
5609;BME280;2826;51.354;9.588;2023-05-12T01:02:48;98112.00;;;13.90;84.51
5609;BME280;2826;51.354;9.588;2023-05-12T01:05:15;98110.34;;;13.89;84.62
5609;BME280;2826;51.354;9.588;2023-05-12T01:07:45;98108.22;;;13.80;85.08
5609;BME280;2826;51.354;9.588;2023-05-12T01:10:16;98121.19;;;13.81;85.25
5609;BME280;2826;51.354;9.588;2023-05-12T01:12:43;98108.91;;;13.83;85.11
5609;BME280;2826;51.354;9.588;2023-05-12T01:15:10;98105.03;;;13.75;85.04
5609;BME280;2826;51.354;9.588;2023-05-12T01:17:52;98119.50;;;13.80;85.33
5609;BME280;2826;51.354;9.588;2023-05-12T01:20:21;98120.34;;;13.81;85.07
5609;BME280;2826;51.354;9.588;2023-05-12T01:22:52;98123.88;;;13.80;85.33
5609;BME280;2826;51.354;9.588;2023-05-12T01:25:22;98119.66;;;13.77;85.25
5609;BME280;2826;51.354;9.588;2023-05-12T01:27:51;98124.38;;;13.70;85.88
5609;BME280;2826;51.354;9.588;2023-05-12T01:30:20;98119.81;;;13.74;85.98
5609;BME280;2826;51.354;9.588;2023-05-12T01:32:49;98123.28;;;13.75;85.99
5609;BME280;2826;51.354;9.588;2023-05-12T01:35:16;98107.34;;;13.63;85.87
5609;BME280;2826;51.354;9.588;2023-05-12T01:37:49;98124.94;;;13.76;85.98
5609;BME280;2826;51.354;9.588;2023-05-12T01:40:17;98133.63;;;13.76;86.13
5609;BME280;2826;51.354;9.588;2023-05-12T01:42:43;98124.94;;;13.76;85.74
5609;BME280;2826;51.354;9.588;2023-05-12T01:45:12;98123.19;;;13.76;85.47
5609;BME280;2826;51.354;9.588;2023-05-12T01:47:39;98130.16;;;13.76;85.22
5609;BME280;2826;51.354;9.588;2023-05-12T01:50:09;98126.03;;;13.71;85.51
5609;BME280;2826;51.354;9.588;2023-05-12T01:52:36;98125.19;;;13.71;85.70
5609;BME280;2826;51.354;9.588;2023-05-12T01:55:07;98132.19;;;13.70;85.33
5609;BME280;2826;51.354;9.588;2023-05-12T01:57:41;98136.53;;;13.70;85.62
5609;BME280;2826;51.354;9.588;2023-05-12T02:00:09;98129.72;;;13.67;85.39
5609;BME280;2826;51.354;9.588;2023-05-12T02:02:41;98130.72;;;13.65;85.37
5609;BME280;2826;51.354;9.588;2023-05-12T02:05:08;98132.47;;;13.64;85.20
5609;BME280;2826;51.354;9.588;2023-05-12T02:07:35;98132.34;;;13.67;85.63
5609;BME280;2826;51.354;9.588;2023-05-12T02:10:02;98133.19;;;13.68;84.93
5609;BME280;2826;51.354;9.588;2023-05-12T02:12:29;98134.19;;;13.65;85.03
5609;BME280;2826;51.354;9.588;2023-05-12T02:14:57;98128.06;;;13.66;84.98
5609;BME280;2826;51.354;9.588;2023-05-12T02:17:23;98126.19;;;13.68;85.08
5609;BME280;2826;51.354;9.588;2023-05-12T02:19:52;98125.19;;;13.71;84.87
5609;BME280;2826;51.354;9.588;2023-05-12T02:22:18;98126.19;;;13.68;84.94
5609;BME280;2826;51.354;9.588;2023-05-12T02:24:45;98126.19;;;13.68;84.63
5609;BME280;2826;51.354;9.588;2023-05-12T02:27:12;98127.13;;;13.67;84.91
5609;BME280;2826;51.354;9.588;2023-05-12T02:29:39;98128.06;;;13.66;84.71
5609;BME280;2826;51.354;9.588;2023-05-12T02:32:07;98127.97;;;13.68;84.41
5609;BME280;2826;51.354;9.588;2023-05-12T02:34:34;98127.13;;;13.67;84.54
5609;BME280;2826;51.354;9.588;2023-05-12T02:37:02;98128.91;;;13.67;84.35
5609;BME280;2826;51.354;9.588;2023-05-12T02:39:29;98129.66;;;13.69;84.18
5609;BME280;2826;51.354;9.588;2023-05-12T02:41:55;98126.13;;;13.70;84.38
5609;BME280;2826;51.354;9.588;2023-05-12T02:44:23;98133.00;;;13.71;84.42
5609;BME280;2826;51.354;9.588;2023-05-12T02:46:50;98127.78;;;13.71;84.26
5609;BME280;2826;51.354;9.588;2023-05-12T02:49:17;98123.44;;;13.71;84.43
5609;BME280;2826;51.354;9.588;2023-05-12T02:51:44;98127.63;;;13.74;84.07
5609;BME280;2826;51.354;9.588;2023-05-12T02:54:14;98132.03;;;13.74;83.97
5609;BME280;2826;51.354;9.588;2023-05-12T02:56:41;98132.84;;;13.74;84.28
5609;BME280;2826;51.354;9.588;2023-05-12T02:59:07;98134.53;;;13.75;84.31
5609;BME280;2826;51.354;9.588;2023-05-12T03:01:34;98126.88;;;13.72;83.88
5609;BME280;2826;51.354;9.588;2023-05-12T03:04:01;98130.41;;;13.71;84.05
5609;BME280;2826;51.354;9.588;2023-05-12T03:06:28;98138.13;;;13.72;84.00
5609;BME280;2826;51.354;9.588;2023-05-12T03:08:55;98139.91;;;13.72;84.51
5609;BME280;2826;51.354;9.588;2023-05-12T03:11:23;98140.06;;;13.69;84.76
5609;BME280;2826;51.354;9.588;2023-05-12T03:13:50;98139.13;;;13.70;84.47
5609;BME280;2826;51.354;9.588;2023-05-12T03:16:17;98138.22;;;13.71;84.52
5609;BME280;2826;51.354;9.588;2023-05-12T03:18:44;98136.63;;;13.68;84.92
5609;BME280;2826;51.354;9.588;2023-05-12T03:21:11;98138.56;;;13.65;84.76
5609;BME280;2826;51.354;9.588;2023-05-12T03:23:37;98145.50;;;13.64;85.24
5609;BME280;2826;51.354;9.588;2023-05-12T03:26:04;98140.41;;;13.63;85.08
5609;BME280;2826;51.354;9.588;2023-05-12T03:28:32;98138.56;;;13.65;84.89
5609;BME280;2826;51.354;9.588;2023-05-12T03:30:59;98141.16;;;13.65;85.14
5609;BME280;2826;51.354;9.588;2023-05-12T03:33:26;98143.00;;;13.63;85.74
5609;BME280;2826;51.354;9.588;2023-05-12T03:35:53;98132.81;;;13.58;85.82
5609;BME280;2826;51.354;9.588;2023-05-12T03:38:22;98144.75;;;13.62;85.77
5609;BME280;2826;51.354;9.588;2023-05-12T03:40:49;98136.09;;;13.62;86.08
5609;BME280;2826;51.354;9.588;2023-05-12T03:43:17;98136.09;;;13.62;86.30
5609;BME280;2826;51.354;9.588;2023-05-12T03:45:48;98139.56;;;13.62;86.20
5609;BME280;2826;51.354;9.588;2023-05-12T03:48:14;98138.63;;;13.63;86.15
5609;BME280;2826;51.354;9.588;2023-05-12T03:50:41;98143.91;;;13.62;86.79
5609;BME280;2826;51.354;9.588;2023-05-12T03:53:08;98136.09;;;13.62;86.79
5609;BME280;2826;51.354;9.588;2023-05-12T03:55:35;98142.31;;;13.59;86.66
5609;BME280;2826;51.354;9.588;2023-05-12T03:58:02;98141.31;;;13.62;87.19
5609;BME280;2826;51.354;9.588;2023-05-12T04:00:29;98139.47;;;13.64;87.34
5609;BME280;2826;51.354;9.588;2023-05-12T04:02:57;98140.22;;;13.66;87.31
5609;BME280;2826;51.354;9.588;2023-05-12T04:05:23;98139.13;;;13.70;87.40
5609;BME280;2826;51.354;9.588;2023-05-12T04:07:50;98142.44;;;13.74;86.79
5609;BME280;2826;51.354;9.588;2023-05-12T04:10:17;98140.66;;;13.74;87.18
5609;BME280;2826;51.354;9.588;2023-05-12T04:12:44;98145.72;;;13.77;87.26
5609;BME280;2826;51.354;9.588;2023-05-12T04:15:10;98138.56;;;13.81;87.02
5609;BME280;2826;51.354;9.588;2023-05-12T04:17:39;98146.16;;;13.85;87.05
5609;BME280;2826;51.354;9.588;2023-05-12T04:20:08;98154.72;;;13.88;87.40
5609;BME280;2826;51.354;9.588;2023-05-12T04:22:34;98150.09;;;13.93;87.40
5609;BME280;2826;51.354;9.588;2023-05-12T04:25:01;98152.63;;;13.94;86.61
5609;BME280;2826;51.354;9.588;2023-05-12T04:27:28;98143.78;;;13.97;86.57
5609;BME280;2826;51.354;9.588;2023-05-12T04:29:54;98151.38;;;14.02;86.70
5609;BME280;2826;51.354;9.588;2023-05-12T04:32:21;98156.34;;;14.06;86.78
5609;BME280;2826;51.354;9.588;2023-05-12T04:34:48;98150.88;;;14.11;86.03
5609;BME280;2826;51.354;9.588;2023-05-12T04:37:17;98156.59;;;14.18;85.83
5609;BME280;2826;51.354;9.588;2023-05-12T04:39:44;98158.13;;;14.22;85.70
5609;BME280;2826;51.354;9.588;2023-05-12T04:42:10;98161.31;;;14.27;85.54
5609;BME280;2826;51.354;9.588;2023-05-12T04:44:37;98164.41;;;14.34;85.49
5609;BME280;2826;51.354;9.588;2023-05-12T04:47:04;98160.56;;;14.41;85.33
5609;BME280;2826;51.354;9.588;2023-05-12T04:49:31;98168.97;;;14.46;85.28
5609;BME280;2826;51.354;9.588;2023-05-12T04:51:57;98164.09;;;14.56;84.75
5609;BME280;2826;51.354;9.588;2023-05-12T04:54:25;98171.38;;;14.66;85.03
5609;BME280;2826;51.354;9.588;2023-05-12T04:56:52;98177.63;;;14.79;84.64
5609;BME280;2826;51.354;9.588;2023-05-12T04:59:20;98178.13;;;14.86;83.88
5609;BME280;2826;51.354;9.588;2023-05-12T05:01:48;98181.09;;;14.94;83.41
5609;BME280;2826;51.354;9.588;2023-05-12T05:04:15;98193.16;;;14.97;83.24
5609;BME280;2826;51.354;9.588;2023-05-12T05:06:42;98192.88;;;15.01;82.98
5609;BME280;2826;51.354;9.588;2023-05-12T05:09:09;98194.56;;;15.02;82.61
5609;BME280;2826;51.354;9.588;2023-05-12T05:11:37;98195.41;;;15.03;82.28
5609;BME280;2826;51.354;9.588;2023-05-12T05:14:04;98199.53;;;15.07;82.17
5609;BME280;2826;51.354;9.588;2023-05-12T05:16:32;98204.59;;;15.10;82.04
5609;BME280;2826;51.354;9.588;2023-05-12T05:19:00;98203.47;;;15.14;82.41
5609;BME280;2826;51.354;9.588;2023-05-12T05:21:28;98207.69;;;15.17;81.96
5609;BME280;2826;51.354;9.588;2023-05-12T05:23:54;98202.25;;;15.20;81.92
5609;BME280;2826;51.354;9.588;2023-05-12T05:26:21;98202.81;;;15.25;81.64
5609;BME280;2826;51.354;9.588;2023-05-12T05:28:50;98207.97;;;15.27;81.16
5609;BME280;2826;51.354;9.588;2023-05-12T05:31:21;98206.84;;;15.31;81.15
5609;BME280;2826;51.354;9.588;2023-05-12T05:33:47;98206.41;;;15.39;81.33
5609;BME280;2826;51.354;9.588;2023-05-12T05:36:14;98216.50;;;15.45;81.07
5609;BME280;2826;51.354;9.588;2023-05-12T05:38:42;98217.84;;;15.52;80.98
5609;BME280;2826;51.354;9.588;2023-05-12T05:41:08;98220.34;;;15.54;80.85
5609;BME280;2826;51.354;9.588;2023-05-12T05:43:35;98218.31;;;15.59;81.16
5609;BME280;2826;51.354;9.588;2023-05-12T05:46:03;98220.47;;;15.67;80.45
5609;BME280;2826;51.354;9.588;2023-05-12T05:48:31;98220.47;;;15.81;77.86
5609;BME280;2826;51.354;9.588;2023-05-12T05:50:58;98216.19;;;15.95;78.47
5609;BME280;2826;51.354;9.588;2023-05-12T05:53:25;98214.59;;;16.07;77.97
5609;BME280;2826;51.354;9.588;2023-05-12T05:55:51;98225.50;;;16.28;77.64
5609;BME280;2826;51.354;9.588;2023-05-12T05:58:18;98226.97;;;16.32;76.41
5609;BME280;2826;51.354;9.588;2023-05-12T06:00:45;98229.50;;;16.34;76.76
5609;BME280;2826;51.354;9.588;2023-05-12T06:03:13;98228.88;;;16.30;76.42
5609;BME280;2826;51.354;9.588;2023-05-12T06:05:42;98230.28;;;16.07;77.76
5609;BME280;2826;51.354;9.588;2023-05-12T06:08:09;98228.16;;;15.99;78.28
5609;BME280;2826;51.354;9.588;2023-05-12T06:10:37;98227.28;;;15.99;78.60
5609;BME280;2826;51.354;9.588;2023-05-12T06:13:03;98227.22;;;16.00;78.92
5609;BME280;2826;51.354;9.588;2023-05-12T06:15:31;98227.66;;;16.07;79.20
5609;BME280;2826;51.354;9.588;2023-05-12T06:17:58;98236.19;;;16.11;79.22
5609;BME280;2826;51.354;9.588;2023-05-12T06:20:25;98237.56;;;16.16;79.61
5609;BME280;2826;51.354;9.588;2023-05-12T06:22:52;98237.47;;;16.18;80.29
5609;BME280;2826;51.354;9.588;2023-05-12T06:25:19;98237.97;;;16.10;80.78
5609;BME280;2826;51.354;9.588;2023-05-12T06:27:45;98245.50;;;16.00;80.98
5609;BME280;2826;51.354;9.588;2023-05-12T06:30:13;98245.97;;;15.92;81.14
5609;BME280;2826;51.354;9.588;2023-05-12T06:32:39;98248.66;;;15.91;81.66
5609;BME280;2826;51.354;9.588;2023-05-12T06:35:07;98248.22;;;15.99;82.10
5609;BME280;2826;51.354;9.588;2023-05-12T06:37:35;98249.16;;;15.98;82.68
5609;BME280;2826;51.354;9.588;2023-05-12T06:40:03;98251.41;;;16.04;82.83
5609;BME280;2826;51.354;9.588;2023-05-12T06:42:30;98248.03;;;16.16;82.88
5609;BME280;2826;51.354;9.588;2023-05-12T06:44:57;98251.94;;;16.38;83.22
5609;BME280;2826;51.354;9.588;2023-05-12T06:47:24;98256.31;;;16.52;82.38
5609;BME280;2826;51.354;9.588;2023-05-12T06:49:51;98255.72;;;16.62;81.53
5609;BME280;2826;51.354;9.588;2023-05-12T06:52:17;98251.66;;;16.70;79.25
5609;BME280;2826;51.354;9.588;2023-05-12T06:54:46;98251.56;;;16.72;78.25
5609;BME280;2826;51.354;9.588;2023-05-12T06:57:13;98251.78;;;16.69;77.50
5609;BME280;2826;51.354;9.588;2023-05-12T06:59:39;98256.72;;;16.74;78.23
5609;BME280;2826;51.354;9.588;2023-05-12T07:02:06;98255.59;;;16.78;78.68
5609;BME280;2826;51.354;9.588;2023-05-12T07:04:33;98256.66;;;16.88;79.15
5609;BME280;2826;51.354;9.588;2023-05-12T07:07:00;98255.22;;;17.11;78.46
5609;BME280;2826;51.354;9.588;2023-05-12T07:09:26;98210.25;;;17.05;78.68
5609;BME280;2826;51.354;9.588;2023-05-12T07:11:54;98261.06;;;17.56;75.55
5609;BME280;2826;51.354;9.588;2023-05-12T07:14:21;98254.88;;;17.83;74.78
5609;BME280;2826;51.354;9.588;2023-05-12T07:16:49;98259.34;;;18.08;73.62
5609;BME280;2826;51.354;9.588;2023-05-12T07:19:15;98245.97;;;18.24;69.71
5609;BME280;2826;51.354;9.588;2023-05-12T07:21:42;98242.66;;;18.47;69.89
5609;BME280;2826;51.354;9.588;2023-05-12T07:24:09;98250.28;;;18.63;68.08
5609;BME280;2826;51.354;9.588;2023-05-12T07:26:36;98245.41;;;18.70;66.42
5609;BME280;2826;51.354;9.588;2023-05-12T07:29:04;98244.44;;;18.84;65.90
5609;BME280;2826;51.354;9.588;2023-05-12T07:31:31;98250.19;;;18.89;62.62
5609;BME280;2826;51.354;9.588;2023-05-12T07:33:58;98247.56;;;18.89;61.98
5609;BME280;2826;51.354;9.588;2023-05-12T07:36:24;98244.22;;;18.87;63.46
5609;BME280;2826;51.354;9.588;2023-05-12T07:38:52;98237.63;;;18.81;64.00
5609;BME280;2826;51.354;9.588;2023-05-12T07:41:19;98239.28;;;18.82;62.86
5609;BME280;2826;51.354;9.588;2023-05-12T07:43:46;98239.06;;;18.85;64.61
5609;BME280;2826;51.354;9.588;2023-05-12T07:46:14;98234.63;;;18.86;64.04
5609;BME280;2826;51.354;9.588;2023-05-12T07:48:40;98235.59;;;18.85;64.63
5609;BME280;2826;51.354;9.588;2023-05-12T07:51:07;98232.69;;;18.76;64.83
5609;BME280;2826;51.354;9.588;2023-05-12T07:53:34;98229.72;;;18.81;65.95
5609;BME280;2826;51.354;9.588;2023-05-12T07:56:00;98226.53;;;18.64;63.79
5609;BME280;2826;51.354;9.588;2023-05-12T07:58:27;98230.31;;;18.60;65.42
5609;BME280;2826;51.354;9.588;2023-05-12T08:00:53;98223.97;;;18.51;65.49
5609;BME280;2826;51.354;9.588;2023-05-12T08:03:23;98224.25;;;18.60;66.03
5609;BME280;2826;51.354;9.588;2023-05-12T08:05:50;98223.69;;;18.67;67.18
5609;BME280;2826;51.354;9.588;2023-05-12T08:08:16;98225.75;;;18.75;66.09
5609;BME280;2826;51.354;9.588;2023-05-12T08:10:43;98220.78;;;18.84;67.15
5609;BME280;2826;51.354;9.588;2023-05-12T08:13:09;98226.09;;;18.95;65.02
5609;BME280;2826;51.354;9.588;2023-05-12T08:15:36;98225.75;;;19.00;65.17
5609;BME280;2826;51.354;9.588;2023-05-12T08:18:02;98228.94;;;18.92;65.73
5609;BME280;2826;51.354;9.588;2023-05-12T08:20:31;98216.78;;;18.91;66.96
5609;BME280;2826;51.354;9.588;2023-05-12T08:22:57;98217.53;;;19.04;68.32
5609;BME280;2826;51.354;9.588;2023-05-12T08:25:24;98221.44;;;19.23;68.52
5609;BME280;2826;51.354;9.588;2023-05-12T08:27:52;98218.03;;;19.34;68.59
5609;BME280;2826;51.354;9.588;2023-05-12T08:30:18;98211.25;;;19.66;67.79
5609;BME280;2826;51.354;9.588;2023-05-12T08:32:45;98214.53;;;20.04;66.63
5609;BME280;2826;51.354;9.588;2023-05-12T08:35:11;98207.56;;;20.26;64.93
5609;BME280;2826;51.354;9.588;2023-05-12T08:37:39;98215.06;;;20.42;61.23
5609;BME280;2826;51.354;9.588;2023-05-12T08:40:13;98218.25;;;20.68;60.13
5609;BME280;2826;51.354;9.588;2023-05-12T08:42:43;98219.19;;;20.79;57.63
5609;BME280;2826;51.354;9.588;2023-05-12T08:45:10;98186.88;;;20.65;56.67
5609;BME280;2826;51.354;9.588;2023-05-12T08:47:37;98214.03;;;20.88;53.91
5609;BME280;2826;51.354;9.588;2023-05-12T08:50:04;98212.56;;;20.96;53.59
5609;BME280;2826;51.354;9.588;2023-05-12T08:52:33;98228.09;;;21.10;53.45
5609;BME280;2826;51.354;9.588;2023-05-12T08:55:02;98226.03;;;21.14;52.24
5609;BME280;2826;51.354;9.588;2023-05-12T08:57:30;98227.25;;;21.31;52.25
5609;BME280;2826;51.354;9.588;2023-05-12T08:59:57;98219.72;;;21.48;52.40
5609;BME280;2826;51.354;9.588;2023-05-12T09:02:24;98221.88;;;21.75;52.57
5609;BME280;2826;51.354;9.588;2023-05-12T09:04:51;98228.75;;;21.88;50.35
5609;BME280;2826;51.354;9.588;2023-05-12T09:07:20;98229.81;;;21.85;49.12
5609;BME280;2826;51.354;9.588;2023-05-12T09:09:51;98235.09;;;21.85;48.63
5609;BME280;2826;51.354;9.588;2023-05-12T09:12:20;98232.63;;;21.93;49.08
5609;BME280;2826;51.354;9.588;2023-05-12T09:14:54;98230.88;;;22.04;50.09
5609;BME280;2826;51.354;9.588;2023-05-12T09:17:24;98231.19;;;22.11;49.22
5609;BME280;2826;51.354;9.588;2023-05-12T09:19:51;98189.53;;;21.83;49.19
5609;BME280;2826;51.354;9.588;2023-05-12T09:22:18;98219.97;;;22.18;49.09
5609;BME280;2826;51.354;9.588;2023-05-12T09:24:52;98223.63;;;22.37;50.79
5609;BME280;2826;51.354;9.588;2023-05-12T09:27:24;98227.56;;;22.53;50.28
5609;BME280;2826;51.354;9.588;2023-05-12T09:29:51;98228.00;;;22.68;49.39
5609;BME280;2826;51.354;9.588;2023-05-12T09:32:28;98233.88;;;22.91;48.34
5609;BME280;2826;51.354;9.588;2023-05-12T09:34:55;98222.19;;;22.94;47.29
5609;BME280;2826;51.354;9.588;2023-05-12T09:37:29;98228.88;;;23.08;48.42
5609;BME280;2826;51.354;9.588;2023-05-12T09:39:59;98224.84;;;23.04;47.46
5609;BME280;2826;51.354;9.588;2023-05-12T09:42:28;98230.41;;;23.01;48.21
5609;BME280;2826;51.354;9.588;2023-05-12T09:44:57;98229.28;;;22.83;48.10
5609;BME280;2826;51.354;9.588;2023-05-12T09:47:26;98221.34;;;22.83;49.32
5609;BME280;2826;51.354;9.588;2023-05-12T09:49:53;98229.97;;;22.76;49.90
5609;BME280;2826;51.354;9.588;2023-05-12T09:52:22;98226.38;;;22.77;49.43
5609;BME280;2826;51.354;9.588;2023-05-12T09:54:48;98227.06;;;22.99;49.75
5609;BME280;2826;51.354;9.588;2023-05-12T09:57:20;98235.84;;;23.09;49.27
5609;BME280;2826;51.354;9.588;2023-05-12T09:59:48;98235.84;;;23.19;48.07
5609;BME280;2826;51.354;9.588;2023-05-12T10:02:16;98237.91;;;23.25;48.16
5609;BME280;2826;51.354;9.588;2023-05-12T10:04:48;98231.53;;;23.08;47.32
5609;BME280;2826;51.354;9.588;2023-05-12T10:07:17;98232.19;;;23.10;48.15
5609;BME280;2826;51.354;9.588;2023-05-12T10:09:48;98244.19;;;23.24;49.69
5609;BME280;2826;51.354;9.588;2023-05-12T10:12:15;98230.94;;;23.14;45.57
5609;BME280;2826;51.354;9.588;2023-05-12T10:14:42;98233.47;;;23.26;46.08
5609;BME280;2826;51.354;9.588;2023-05-12T10:17:11;98230.00;;;23.45;46.11
5609;BME280;2826;51.354;9.588;2023-05-12T10:19:38;98229.09;;;23.64;44.72
5609;BME280;2826;51.354;9.588;2023-05-12T10:22:09;98226.22;;;23.47;43.84
5609;BME280;2826;51.354;9.588;2023-05-12T10:24:36;98232.78;;;23.14;45.26
5609;BME280;2826;51.354;9.588;2023-05-12T10:27:04;98230.94;;;22.75;45.87
5609;BME280;2826;51.354;9.588;2023-05-12T10:29:31;98229.63;;;22.39;45.87
5609;BME280;2826;51.354;9.588;2023-05-12T10:31:59;98226.56;;;22.03;45.70
5609;BME280;2826;51.354;9.588;2023-05-12T10:34:32;98229.78;;;22.06;46.55
5609;BME280;2826;51.354;9.588;2023-05-12T10:36:59;98231.75;;;21.83;47.16
5609;BME280;2826;51.354;9.588;2023-05-12T10:39:28;98230.22;;;21.80;48.54
5609;BME280;2826;51.354;9.588;2023-05-12T10:42:00;98235.94;;;21.86;47.87
5609;BME280;2826;51.354;9.588;2023-05-12T10:44:29;98240.38;;;21.85;47.51
5609;BME280;2826;51.354;9.588;2023-05-12T10:46:56;98236.50;;;21.89;48.41
5609;BME280;2826;51.354;9.588;2023-05-12T10:49:32;98237.72;;;21.85;48.01
5609;BME280;2826;51.354;9.588;2023-05-12T10:52:02;98229.66;;;21.77;46.90
5609;BME280;2826;51.354;9.588;2023-05-12T10:54:36;98234.34;;;21.73;46.89
5609;BME280;2826;51.354;9.588;2023-05-12T10:57:10;98219.22;;;21.75;47.57
5609;BME280;2826;51.354;9.588;2023-05-12T10:59:46;98230.13;;;21.71;45.84
5609;BME280;2826;51.354;9.588;2023-05-12T11:02:15;98234.13;;;21.65;45.75
5609;BME280;2826;51.354;9.588;2023-05-12T11:04:47;98236.63;;;21.66;45.02
5609;BME280;2826;51.354;9.588;2023-05-12T11:07:15;98243.97;;;21.63;45.14
5609;BME280;2826;51.354;9.588;2023-05-12T11:09:44;98231.63;;;21.63;45.69
5609;BME280;2826;51.354;9.588;2023-05-12T11:12:12;98230.53;;;21.66;45.92
5609;BME280;2826;51.354;9.588;2023-05-12T11:14:40;98227.97;;;21.76;45.74
5609;BME280;2826;51.354;9.588;2023-05-12T11:17:08;98197.78;;;21.47;45.54
5609;BME280;2826;51.354;9.588;2023-05-12T11:19:35;98235.09;;;21.85;45.33
5609;BME280;2826;51.354;9.588;2023-05-12T11:22:06;98240.59;;;22.03;45.33
5609;BME280;2826;51.354;9.588;2023-05-12T11:24:34;98222.56;;;22.09;45.31
5609;BME280;2826;51.354;9.588;2023-05-12T11:27:00;98226.53;;;22.34;45.09
5609;BME280;2826;51.354;9.588;2023-05-12T11:29:29;98241.84;;;22.50;43.99
5609;BME280;2826;51.354;9.588;2023-05-12T11:31:56;98233.59;;;22.65;43.22
5609;BME280;2826;51.354;9.588;2023-05-12T11:34:24;98229.16;;;22.85;42.52
5609;BME280;2826;51.354;9.588;2023-05-12T11:36:52;98226.94;;;22.90;41.61
5609;BME280;2826;51.354;9.588;2023-05-12T11:39:22;98224.41;;;23.08;39.59
5609;BME280;2826;51.354;9.588;2023-05-12T11:41:49;98227.59;;;23.32;39.66
5609;BME280;2826;51.354;9.588;2023-05-12T11:44:17;98234.97;;;23.58;39.66
5609;BME280;2826;51.354;9.588;2023-05-12T11:46:55;98233.09;;;23.78;39.27
5609;BME280;2826;51.354;9.588;2023-05-12T11:49:22;98227.66;;;23.90;38.70
5609;BME280;2826;51.354;9.588;2023-05-12T11:51:50;98229.22;;;24.20;37.90
5609;BME280;2826;51.354;9.588;2023-05-12T11:54:17;98229.22;;;24.66;36.91
5609;BME280;2826;51.354;9.588;2023-05-12T11:56:47;98232.66;;;25.31;36.17
5609;BME280;2826;51.354;9.588;2023-05-12T11:59:24;98197.56;;;25.64;35.95
5609;BME280;2826;51.354;9.588;2023-05-12T12:01:51;98232.56;;;25.94;34.50
5609;BME280;2826;51.354;9.588;2023-05-12T12:04:18;98234.69;;;25.91;34.30
5609;BME280;2826;51.354;9.588;2023-05-12T12:06:45;98240.66;;;26.19;34.83
5609;BME280;2826;51.354;9.588;2023-05-12T12:09:12;98231.81;;;26.54;32.61
5609;BME280;2826;51.354;9.588;2023-05-12T12:11:39;98241.09;;;26.15;33.01
5609;BME280;2826;51.354;9.588;2023-05-12T12:14:07;98219.72;;;25.81;33.16
5609;BME280;2826;51.354;9.588;2023-05-12T12:16:33;98247.13;;;25.82;34.08
5609;BME280;2826;51.354;9.588;2023-05-12T12:19:00;98234.72;;;25.46;34.32
5609;BME280;2826;51.354;9.588;2023-05-12T12:21:27;98248.06;;;25.28;34.90
5609;BME280;2826;51.354;9.588;2023-05-12T12:23:53;98242.53;;;25.03;34.76
5609;BME280;2826;51.354;9.588;2023-05-12T12:26:20;98236.88;;;24.70;35.17
5609;BME280;2826;51.354;9.588;2023-05-12T12:28:47;98250.59;;;24.37;35.39
5609;BME280;2826;51.354;9.588;2023-05-12T12:31:16;98246.00;;;23.91;36.45
5609;BME280;2826;51.354;9.588;2023-05-12T12:33:43;98251.91;;;23.75;36.83
5609;BME280;2826;51.354;9.588;2023-05-12T12:36:10;98248.47;;;23.55;36.68
5609;BME280;2826;51.354;9.588;2023-05-12T12:38:37;98256.03;;;23.30;35.85
5609;BME280;2826;51.354;9.588;2023-05-12T12:41:05;98256.72;;;23.12;36.29
5609;BME280;2826;51.354;9.588;2023-05-12T12:43:32;98252.25;;;22.93;36.60
5609;BME280;2826;51.354;9.588;2023-05-12T12:45:58;98256.69;;;22.82;36.63
5609;BME280;2826;51.354;9.588;2023-05-12T12:48:26;98245.13;;;22.74;36.82
5609;BME280;2826;51.354;9.588;2023-05-12T12:50:54;98256.41;;;22.76;36.97
5609;BME280;2826;51.354;9.588;2023-05-12T12:53:20;98251.84;;;22.88;37.27
5609;BME280;2826;51.354;9.588;2023-05-12T12:55:47;98256.41;;;22.86;36.92
5609;BME280;2826;51.354;9.588;2023-05-12T12:58:13;98258.09;;;22.96;37.10
5609;BME280;2826;51.354;9.588;2023-05-12T13:00:40;98253.38;;;23.10;37.17
5609;BME280;2826;51.354;9.588;2023-05-12T13:03:07;98257.13;;;23.27;36.66
5609;BME280;2826;51.354;9.588;2023-05-12T13:05:35;98257.28;;;23.26;35.73
5609;BME280;2826;51.354;9.588;2023-05-12T13:08:02;98252.69;;;23.38;36.00
5609;BME280;2826;51.354;9.588;2023-05-12T13:10:29;98260.31;;;23.31;35.04
5609;BME280;2826;51.354;9.588;2023-05-12T13:12:56;98261.75;;;23.35;36.20
5609;BME280;2826;51.354;9.588;2023-05-12T13:15:23;98257.84;;;23.39;36.22
5609;BME280;2826;51.354;9.588;2023-05-12T13:17:49;98258.25;;;23.25;36.10
5609;BME280;2826;51.354;9.588;2023-05-12T13:20:16;98260.19;;;23.13;36.05
5609;BME280;2826;51.354;9.588;2023-05-12T13:22:44;98257.97;;;22.98;36.80
5609;BME280;2826;51.354;9.588;2023-05-12T13:25:12;98258.66;;;22.90;36.76